sensor_id;sensor_type;location;lat;lon;timestamp;pressure;altitude;pressure_sealevel;temperature
42119;BMP280;27783;42.782;23.274;2023-06-22T00:00:21;95935.19;;;16.78
42119;BMP280;27783;42.782;23.274;2023-06-22T00:02:51;95933.28;;;16.78
42119;BMP280;27783;42.782;23.274;2023-06-22T00:05:16;95928.22;;;16.84
42119;BMP280;27783;42.782;23.274;2023-06-22T00:07:51;95933.63;;;16.99
42119;BMP280;27783;42.782;23.274;2023-06-22T00:10:17;95929.56;;;16.53
42119;BMP280;27783;42.782;23.274;2023-06-22T00:12:44;95935.72;;;16.51
42119;BMP280;27783;42.782;23.274;2023-06-22T00:15:11;95926.38;;;16.20
42119;BMP280;27783;42.782;23.274;2023-06-22T00:17:36;95928.13;;;16.08
42119;BMP280;27783;42.782;23.274;2023-06-22T00:20:04;95925.50;;;16.49
42119;BMP280;27783;42.782;23.274;2023-06-22T00:22:31;95917.16;;;16.85
42119;BMP280;27783;42.782;23.274;2023-06-22T00:24:59;95910.22;;;16.72
42119;BMP280;27783;42.782;23.274;2023-06-22T00:27:24;95913.41;;;16.45
42119;BMP280;27783;42.782;23.274;2023-06-22T00:29:50;95916.06;;;16.45
42119;BMP280;27783;42.782;23.274;2023-06-22T00:32:16;95924.31;;;16.31
42119;BMP280;27783;42.782;23.274;2023-06-22T00:34:43;95919.63;;;16.57
42119;BMP280;27783;42.782;23.274;2023-06-22T00:37:14;95923.03;;;16.58
42119;BMP280;27783;42.782;23.274;2023-06-22T00:39:48;95915.81;;;16.58
42119;BMP280;27783;42.782;23.274;2023-06-22T00:42:15;95912.59;;;16.48
42119;BMP280;27783;42.782;23.274;2023-06-22T00:44:40;95901.53;;;16.49
42119;BMP280;27783;42.782;23.274;2023-06-22T00:47:21;95916.63;;;16.14
42119;BMP280;27783;42.782;23.274;2023-06-22T00:49:48;95920.63;;;16.25
42119;BMP280;27783;42.782;23.274;2023-06-22T00:52:22;95923.97;;;16.29
42119;BMP280;27783;42.782;23.274;2023-06-22T00:54:53;95920.53;;;16.10
42119;BMP280;27783;42.782;23.274;2023-06-22T00:57:20;95926.06;;;16.18
42119;BMP280;27783;42.782;23.274;2023-06-22T00:59:49;95949.28;;;16.37
42119;BMP280;27783;42.782;23.274;2023-06-22T01:02:17;95931.59;;;16.27
42119;BMP280;27783;42.782;23.274;2023-06-22T01:04:44;95926.13;;;16.15
42119;BMP280;27783;42.782;23.274;2023-06-22T01:07:35;95928.25;;;16.01
42119;BMP280;27783;42.782;23.274;2023-06-22T01:12:52;95923.97;;;16.29
42119;BMP280;27783;42.782;23.274;2023-06-22T01:18:46;95923.72;;;16.20
42119;BMP280;27783;42.782;23.274;2023-06-22T01:21:19;95930.22;;;16.19
42119;BMP280;27783;42.782;23.274;2023-06-22T01:24:15;95933.00;;;16.13
42119;BMP280;27783;42.782;23.274;2023-06-22T01:27:03;95940.19;;;16.16
42119;BMP280;27783;42.782;23.274;2023-06-22T01:29:34;95935.53;;;15.97
42119;BMP280;27783;42.782;23.274;2023-06-22T01:32:01;95951.34;;;15.82
42119;BMP280;27783;42.782;23.274;2023-06-22T01:34:38;95940.75;;;15.30
42119;BMP280;27783;42.782;23.274;2023-06-22T01:37:09;95950.00;;;15.45
42119;BMP280;27783;42.782;23.274;2023-06-22T01:39:35;95946.22;;;15.46
42119;BMP280;27783;42.782;23.274;2023-06-22T01:42:23;95949.28;;;15.70
42119;BMP280;27783;42.782;23.274;2023-06-22T01:44:49;95943.78;;;15.54
42119;BMP280;27783;42.782;23.274;2023-06-22T01:47:33;95948.78;;;15.75
42119;BMP280;27783;42.782;23.274;2023-06-22T01:50:09;95970.06;;;15.75
42119;BMP280;27783;42.782;23.274;2023-06-22T01:52:35;95967.88;;;15.70
42119;BMP280;27783;42.782;23.274;2023-06-22T01:55:07;95966.97;;;15.80
42119;BMP280;27783;42.782;23.274;2023-06-22T01:57:35;95969.56;;;15.83
42119;BMP280;27783;42.782;23.274;2023-06-22T02:00:11;95978.22;;;15.87
42119;BMP280;27783;42.782;23.274;2023-06-22T02:02:59;95981.00;;;15.54
42119;BMP280;27783;42.782;23.274;2023-06-22T02:05:31;95978.84;;;15.20
42119;BMP280;27783;42.782;23.274;2023-06-22T02:10:45;95982.34;;;15.14
42119;BMP280;27783;42.782;23.274;2023-06-22T02:13:13;95978.94;;;15.14
42119;BMP280;27783;42.782;23.274;2023-06-22T02:15:39;95971.97;;;15.23
42119;BMP280;27783;42.782;23.274;2023-06-22T02:18:06;95969.34;;;15.19
42119;BMP280;27783;42.782;23.274;2023-06-22T02:20:32;95967.78;;;15.22
42119;BMP280;27783;42.782;23.274;2023-06-22T02:22:58;95974.38;;;15.40
42119;BMP280;27783;42.782;23.274;2023-06-22T02:25:24;95974.63;;;15.23
42119;BMP280;27783;42.782;23.274;2023-06-22T02:27:58;95966.25;;;15.24
42119;BMP280;27783;42.782;23.274;2023-06-22T02:30:28;95962.53;;;14.89
42119;BMP280;27783;42.782;23.274;2023-06-22T02:32:58;95960.69;;;14.83
42119;BMP280;27783;42.782;23.274;2023-06-22T02:35:48;95968.34;;;14.78
42119;BMP280;27783;42.782;23.274;2023-06-22T02:38:15;95963.69;;;14.85
42119;BMP280;27783;42.782;23.274;2023-06-22T02:40:45;95967.41;;;14.94
42119;BMP280;27783;42.782;23.274;2023-06-22T02:43:11;95957.94;;;14.93
42119;BMP280;27783;42.782;23.274;2023-06-22T02:45:38;95963.31;;;14.86
42119;BMP280;27783;42.782;23.274;2023-06-22T02:48:14;95955.72;;;14.88
42119;BMP280;27783;42.782;23.274;2023-06-22T02:50:42;95952.09;;;15.05
42119;BMP280;27783;42.782;23.274;2023-06-22T02:53:09;95959.22;;;15.11
42119;BMP280;27783;42.782;23.274;2023-06-22T02:55:39;95961.34;;;15.23
42119;BMP280;27783;42.782;23.274;2023-06-22T02:58:07;95962.91;;;15.20
42119;BMP280;27783;42.782;23.274;2023-06-22T03:00:38;95964.28;;;15.28
42119;BMP280;27783;42.782;23.274;2023-06-22T03:03:04;95968.41;;;15.33
42119;BMP280;27783;42.782;23.274;2023-06-22T03:05:30;95967.28;;;15.34
42119;BMP280;27783;42.782;23.274;2023-06-22T03:07:58;95975.16;;;15.40
42119;BMP280;27783;42.782;23.274;2023-06-22T03:10:28;95970.47;;;15.48
42119;BMP280;27783;42.782;23.274;2023-06-22T03:12:54;95979.16;;;15.51
42119;BMP280;27783;42.782;23.274;2023-06-22T03:15:20;95992.63;;;15.38
42119;BMP280;27783;42.782;23.274;2023-06-22T03:17:47;95988.16;;;15.32
42119;BMP280;27783;42.782;23.274;2023-06-22T03:20:17;95998.34;;;15.36
42119;BMP280;27783;42.782;23.274;2023-06-22T03:22:45;95997.63;;;15.33
42119;BMP280;27783;42.782;23.274;2023-06-22T03:25:11;95992.78;;;15.53
42119;BMP280;27783;42.782;23.274;2023-06-22T03:27:48;96006.09;;;15.53
42119;BMP280;27783;42.782;23.274;2023-06-22T03:30:13;95998.53;;;15.49
42119;BMP280;27783;42.782;23.274;2023-06-22T03:32:40;95997.31;;;15.56
42119;BMP280;27783;42.782;23.274;2023-06-22T03:35:23;96002.75;;;15.72
42119;BMP280;27783;42.782;23.274;2023-06-22T03:44:55;96014.03;;;15.24
42119;BMP280;27783;42.782;23.274;2023-06-22T03:47:26;96018.28;;;15.48
42119;BMP280;27783;42.782;23.274;2023-06-22T03:49:54;96021.22;;;15.56
42119;BMP280;27783;42.782;23.274;2023-06-22T03:52:23;96022.22;;;15.66
42119;BMP280;27783;42.782;23.274;2023-06-22T03:54:50;96011.06;;;15.74
42119;BMP280;27783;42.782;23.274;2023-06-22T03:57:17;96012.19;;;15.51
42119;BMP280;27783;42.782;23.274;2023-06-22T04:00:04;96007.13;;;15.59
42119;BMP280;27783;42.782;23.274;2023-06-22T04:02:38;96011.69;;;15.84
42119;BMP280;27783;42.782;23.274;2023-06-22T04:05:09;95997.81;;;16.00
42119;BMP280;27783;42.782;23.274;2023-06-22T04:07:38;95997.28;;;16.08
42119;BMP280;27783;42.782;23.274;2023-06-22T04:10:08;95994.78;;;16.20
42119;BMP280;27783;42.782;23.274;2023-06-22T04:12:33;96004.34;;;16.17
42119;BMP280;27783;42.782;23.274;2023-06-22T04:15:03;96001.50;;;16.50
42119;BMP280;27783;42.782;23.274;2023-06-22T04:17:29;95989.06;;;16.44
42119;BMP280;27783;42.782;23.274;2023-06-22T04:19:55;95986.75;;;16.46
42119;BMP280;27783;42.782;23.274;2023-06-22T04:22:33;95979.44;;;16.91
42119;BMP280;27783;42.782;23.274;2023-06-22T04:25:01;95993.16;;;16.89
42119;BMP280;27783;42.782;23.274;2023-06-22T04:27:26;95985.78;;;17.16
42119;BMP280;27783;42.782;23.274;2023-06-22T04:29:58;95987.63;;;17.18
42119;BMP280;27783;42.782;23.274;2023-06-22T04:32:25;95992.06;;;17.25
42119;BMP280;27783;42.782;23.274;2023-06-22T04:34:53;95990.16;;;17.06
42119;BMP280;27783;42.782;23.274;2023-06-22T04:37:19;95999.94;;;17.32
42119;BMP280;27783;42.782;23.274;2023-06-22T04:39:49;95996.53;;;17.47
42119;BMP280;27783;42.782;23.274;2023-06-22T04:42:15;96006.38;;;17.50
42119;BMP280;27783;42.782;23.274;2023-06-22T04:44:43;96012.88;;;17.49
42119;BMP280;27783;42.782;23.274;2023-06-22T04:47:11;96012.34;;;17.72
42119;BMP280;27783;42.782;23.274;2023-06-22T04:49:37;95997.72;;;17.96
42119;BMP280;27783;42.782;23.274;2023-06-22T04:52:05;96006.97;;;17.91
42119;BMP280;27783;42.782;23.274;2023-06-22T04:54:31;96008.00;;;18.13
42119;BMP280;27783;42.782;23.274;2023-06-22T04:57:05;96004.97;;;18.42
42119;BMP280;27783;42.782;23.274;2023-06-22T04:59:35;96002.56;;;18.90
42119;BMP280;27783;42.782;23.274;2023-06-22T05:02:05;95999.66;;;18.85
42119;BMP280;27783;42.782;23.274;2023-06-22T05:04:34;95998.66;;;19.07
42119;BMP280;27783;42.782;23.274;2023-06-22T05:07:02;96001.91;;;19.54
42119;BMP280;27783;42.782;23.274;2023-06-22T05:09:30;95991.97;;;19.54
42119;BMP280;27783;42.782;23.274;2023-06-22T05:11:55;95998.59;;;19.62
42119;BMP280;27783;42.782;23.274;2023-06-22T05:14:26;96000.34;;;19.69
42119;BMP280;27783;42.782;23.274;2023-06-22T05:16:51;96000.31;;;20.29
42119;BMP280;27783;42.782;23.274;2023-06-22T05:19:24;96003.00;;;20.29
42119;BMP280;27783;42.782;23.274;2023-06-22T05:21:49;96005.53;;;20.78
42119;BMP280;27783;42.782;23.274;2023-06-22T05:24:15;96001.81;;;21.29
42119;BMP280;27783;42.782;23.274;2023-06-22T05:26:41;96010.53;;;21.21
42119;BMP280;27783;42.782;23.274;2023-06-22T05:29:07;96015.72;;;21.16
42119;BMP280;27783;42.782;23.274;2023-06-22T05:31:33;96008.09;;;21.56
42119;BMP280;27783;42.782;23.274;2023-06-22T05:33:58;96006.34;;;21.62
42119;BMP280;27783;42.782;23.274;2023-06-22T05:36:26;96011.75;;;21.70
42119;BMP280;27783;42.782;23.274;2023-06-22T05:38:52;96013.88;;;22.05
42119;BMP280;27783;42.782;23.274;2023-06-22T05:41:19;96013.34;;;22.19
42119;BMP280;27783;42.782;23.274;2023-06-22T05:43:45;96014.53;;;22.18
42119;BMP280;27783;42.782;23.274;2023-06-22T05:46:10;96016.03;;;22.27
42119;BMP280;27783;42.782;23.274;2023-06-22T05:48:36;96005.63;;;22.47
42119;BMP280;27783;42.782;23.274;2023-06-22T05:51:01;96008.63;;;22.49
42119;BMP280;27783;42.782;23.274;2023-06-22T05:53:26;96014.72;;;22.32
42119;BMP280;27783;42.782;23.274;2023-06-22T05:55:52;96003.91;;;22.14
42119;BMP280;27783;42.782;23.274;2023-06-22T05:58:17;96006.34;;;22.94
42119;BMP280;27783;42.782;23.274;2023-06-22T06:00:43;96004.84;;;23.28
42119;BMP280;27783;42.782;23.274;2023-06-22T06:03:09;96008.41;;;22.99
42119;BMP280;27783;42.782;23.274;2023-06-22T06:05:42;95996.03;;;23.19
42119;BMP280;27783;42.782;23.274;2023-06-22T06:08:08;95994.97;;;23.43
42119;BMP280;27783;42.782;23.274;2023-06-22T06:10:34;96005.44;;;23.99
42119;BMP280;27783;42.782;23.274;2023-06-22T06:13:00;96004.28;;;23.91
42119;BMP280;27783;42.782;23.274;2023-06-22T06:15:30;95997.88;;;23.80
42119;BMP280;27783;42.782;23.274;2023-06-22T06:17:56;95994.94;;;23.60
42119;BMP280;27783;42.782;23.274;2023-06-22T06:20:23;96003.78;;;24.01
42119;BMP280;27783;42.782;23.274;2023-06-22T06:22:51;95995.63;;;24.73
42119;BMP280;27783;42.782;23.274;2023-06-22T06:25:24;95990.47;;;24.61
42119;BMP280;27783;42.782;23.274;2023-06-22T06:27:51;95990.25;;;24.73
42119;BMP280;27783;42.782;23.274;2023-06-22T06:30:18;95995.34;;;24.94
42119;BMP280;27783;42.782;23.274;2023-06-22T06:32:47;95990.38;;;24.92
42119;BMP280;27783;42.782;23.274;2023-06-22T06:35:14;95990.03;;;25.22
42119;BMP280;27783;42.782;23.274;2023-06-22T06:37:42;95987.31;;;25.22
42119;BMP280;27783;42.782;23.274;2023-06-22T06:42:46;95977.19;;;26.16
42119;BMP280;27783;42.782;23.274;2023-06-22T06:45:19;95971.81;;;25.73
42119;BMP280;27783;42.782;23.274;2023-06-22T06:47:46;95974.81;;;25.47
42119;BMP280;27783;42.782;23.274;2023-06-22T06:50:13;95959.06;;;26.22
42119;BMP280;27783;42.782;23.274;2023-06-22T06:52:39;95969.34;;;26.18
42119;BMP280;27783;42.782;23.274;2023-06-22T06:55:05;95963.72;;;25.88
42119;BMP280;27783;42.782;23.274;2023-06-22T06:57:36;95951.44;;;27.37
42119;BMP280;27783;42.782;23.274;2023-06-22T07:00:06;95960.69;;;27.50
42119;BMP280;27783;42.782;23.274;2023-06-22T07:02:38;95951.88;;;27.79
42119;BMP280;27783;42.782;23.274;2023-06-22T07:05:05;95963.34;;;27.94
42119;BMP280;27783;42.782;23.274;2023-06-22T07:07:33;95964.03;;;27.15
42119;BMP280;27783;42.782;23.274;2023-06-22T07:09:59;95951.59;;;28.38
42119;BMP280;27783;42.782;23.274;2023-06-22T07:12:26;95956.34;;;28.99
42119;BMP280;27783;42.782;23.274;2023-06-22T07:15:08;95962.06;;;27.90
42119;BMP280;27783;42.782;23.274;2023-06-22T07:17:34;95957.84;;;27.89
42119;BMP280;27783;42.782;23.274;2023-06-22T07:20:00;95951.75;;;27.93
42119;BMP280;27783;42.782;23.274;2023-06-22T07:22:26;95952.19;;;29.09
42119;BMP280;27783;42.782;23.274;2023-06-22T07:24:51;95953.34;;;28.46
42119;BMP280;27783;42.782;23.274;2023-06-22T07:27:17;95954.97;;;27.97
42119;BMP280;27783;42.782;23.274;2023-06-22T07:29:45;95955.97;;;29.27
42119;BMP280;27783;42.782;23.274;2023-06-22T07:32:10;95949.59;;;29.57
42119;BMP280;27783;42.782;23.274;2023-06-22T07:34:36;95951.13;;;29.79
42119;BMP280;27783;42.782;23.274;2023-06-22T07:37:01;95960.34;;;28.22
42119;BMP280;27783;42.782;23.274;2023-06-22T07:39:26;95959.31;;;29.01
42119;BMP280;27783;42.782;23.274;2023-06-22T07:41:53;95956.88;;;28.57
42119;BMP280;27783;42.782;23.274;2023-06-22T07:44:19;95963.84;;;28.69
42119;BMP280;27783;42.782;23.274;2023-06-22T07:46:44;95949.97;;;29.18
42119;BMP280;27783;42.782;23.274;2023-06-22T07:49:09;95953.19;;;29.17
42119;BMP280;27783;42.782;23.274;2023-06-22T07:51:35;95944.91;;;29.74
42119;BMP280;27783;42.782;23.274;2023-06-22T07:54:01;95936.81;;;29.79
42119;BMP280;27783;42.782;23.274;2023-06-22T07:56:26;95941.47;;;29.62
42119;BMP280;27783;42.782;23.274;2023-06-22T07:58:51;95939.22;;;30.52
42119;BMP280;27783;42.782;23.274;2023-06-22T08:01:18;95928.63;;;29.90
42119;BMP280;27783;42.782;23.274;2023-06-22T08:03:49;95933.06;;;28.77
42119;BMP280;27783;42.782;23.274;2023-06-22T08:06:14;95922.16;;;29.44
42119;BMP280;27783;42.782;23.274;2023-06-22T08:08:40;95916.09;;;30.85
42119;BMP280;27783;42.782;23.274;2023-06-22T08:11:05;95916.50;;;30.01
42119;BMP280;27783;42.782;23.274;2023-06-22T08:13:31;95915.66;;;30.65
42119;BMP280;27783;42.782;23.274;2023-06-22T08:15:57;95912.69;;;30.68
42119;BMP280;27783;42.782;23.274;2023-06-22T08:18:22;95912.97;;;30.49
42119;BMP280;27783;42.782;23.274;2023-06-22T08:20:47;95908.06;;;30.21
42119;BMP280;27783;42.782;23.274;2023-06-22T08:23:13;95920.28;;;32.04
42119;BMP280;27783;42.782;23.274;2023-06-22T08:25:38;95908.66;;;31.69
42119;BMP280;27783;42.782;23.274;2023-06-22T08:28:04;95915.34;;;31.34
42119;BMP280;27783;42.782;23.274;2023-06-22T08:30:30;95912.56;;;30.02
42119;BMP280;27783;42.782;23.274;2023-06-22T08:32:56;95923.34;;;29.17
42119;BMP280;27783;42.782;23.274;2023-06-22T08:35:25;95913.97;;;30.46
42119;BMP280;27783;42.782;23.274;2023-06-22T08:37:51;95907.81;;;30.40
42119;BMP280;27783;42.782;23.274;2023-06-22T08:40:20;95897.09;;;30.63
42119;BMP280;27783;42.782;23.274;2023-06-22T08:42:45;95895.97;;;30.98
42119;BMP280;27783;42.782;23.274;2023-06-22T08:45:11;95899.97;;;31.31
42119;BMP280;27783;42.782;23.274;2023-06-22T08:47:37;95890.69;;;30.61
42119;BMP280;27783;42.782;23.274;2023-06-22T08:50:03;95889.31;;;31.73
42119;BMP280;27783;42.782;23.274;2023-06-22T08:52:30;95886.22;;;31.53
42119;BMP280;27783;42.782;23.274;2023-06-22T08:54:55;95891.75;;;31.42
42119;BMP280;27783;42.782;23.274;2023-06-22T08:57:21;95881.75;;;31.16
42119;BMP280;27783;42.782;23.274;2023-06-22T08:59:46;95880.78;;;30.53
42119;BMP280;27783;42.782;23.274;2023-06-22T09:02:12;95880.13;;;32.28
42119;BMP280;27783;42.782;23.274;2023-06-22T09:04:37;95883.31;;;32.31
42119;BMP280;27783;42.782;23.274;2023-06-22T09:07:03;95887.75;;;32.58
42119;BMP280;27783;42.782;23.274;2023-06-22T09:09:29;95878.50;;;31.91
42119;BMP280;27783;42.782;23.274;2023-06-22T09:11:54;95878.75;;;31.59
42119;BMP280;27783;42.782;23.274;2023-06-22T09:14:20;95886.84;;;31.98
42119;BMP280;27783;42.782;23.274;2023-06-22T09:16:45;95874.59;;;31.81
42119;BMP280;27783;42.782;23.274;2023-06-22T09:19:11;95883.28;;;32.08
42119;BMP280;27783;42.782;23.274;2023-06-22T09:21:36;95883.81;;;32.07
42119;BMP280;27783;42.782;23.274;2023-06-22T09:24:02;95879.91;;;32.90
42119;BMP280;27783;42.782;23.274;2023-06-22T09:26:27;95879.00;;;32.41
42119;BMP280;27783;42.782;23.274;2023-06-22T09:28:53;95875.59;;;32.30
42119;BMP280;27783;42.782;23.274;2023-06-22T09:31:18;95879.56;;;32.34
42119;BMP280;27783;42.782;23.274;2023-06-22T09:33:51;95875.97;;;32.21
42119;BMP280;27783;42.782;23.274;2023-06-22T09:36:16;95873.44;;;33.11
42119;BMP280;27783;42.782;23.274;2023-06-22T09:38:42;95869.81;;;33.03
42119;BMP280;27783;42.782;23.274;2023-06-22T09:41:07;95870.91;;;32.54
42119;BMP280;27783;42.782;23.274;2023-06-22T09:43:33;95860.81;;;31.68
42119;BMP280;27783;42.782;23.274;2023-06-22T09:46:02;95853.19;;;32.83
42119;BMP280;27783;42.782;23.274;2023-06-22T09:48:28;95854.97;;;33.35
42119;BMP280;27783;42.782;23.274;2023-06-22T09:50:55;95849.69;;;33.55
42119;BMP280;27783;42.782;23.274;2023-06-22T09:53:20;95848.28;;;33.79
42119;BMP280;27783;42.782;23.274;2023-06-22T09:55:46;95852.66;;;33.39
42119;BMP280;27783;42.782;23.274;2023-06-22T09:58:12;95844.59;;;33.46
42119;BMP280;27783;42.782;23.274;2023-06-22T10:00:37;95847.25;;;33.15
42119;BMP280;27783;42.782;23.274;2023-06-22T10:03:03;95845.56;;;33.79
42119;BMP280;27783;42.782;23.274;2023-06-22T10:05:28;95844.72;;;33.53
42119;BMP280;27783;42.782;23.274;2023-06-22T10:07:54;95841.84;;;34.20
42119;BMP280;27783;42.782;23.274;2023-06-22T10:10:19;95839.28;;;34.98
42119;BMP280;27783;42.782;23.274;2023-06-22T10:12:47;95836.38;;;34.83
42119;BMP280;27783;42.782;23.274;2023-06-22T10:15:14;95850.84;;;33.29
42119;BMP280;27783;42.782;23.274;2023-06-22T10:17:40;95849.34;;;33.10
42119;BMP280;27783;42.782;23.274;2023-06-22T10:20:06;95830.56;;;34.61
42119;BMP280;27783;42.782;23.274;2023-06-22T10:22:41;95831.66;;;35.88
42119;BMP280;27783;42.782;23.274;2023-06-22T10:25:07;95825.88;;;35.79
42119;BMP280;27783;42.782;23.274;2023-06-22T10:27:33;95823.00;;;35.45
42119;BMP280;27783;42.782;23.274;2023-06-22T10:29:58;95825.75;;;35.45
42119;BMP280;27783;42.782;23.274;2023-06-22T10:32:23;95814.75;;;33.48
42119;BMP280;27783;42.782;23.274;2023-06-22T10:34:49;95818.47;;;34.57
42119;BMP280;27783;42.782;23.274;2023-06-22T10:37:14;95815.41;;;34.10
42119;BMP280;27783;42.782;23.274;2023-06-22T10:39:39;95812.78;;;34.80
42119;BMP280;27783;42.782;23.274;2023-06-22T10:42:05;95818.50;;;33.45
42119;BMP280;27783;42.782;23.274;2023-06-22T10:44:30;95816.44;;;34.07
42119;BMP280;27783;42.782;23.274;2023-06-22T10:46:56;95809.53;;;32.78
42119;BMP280;27783;42.782;23.274;2023-06-22T10:49:21;95808.03;;;34.55
42119;BMP280;27783;42.782;23.274;2023-06-22T10:51:47;95799.78;;;33.80
42119;BMP280;27783;42.782;23.274;2023-06-22T10:54:12;95803.31;;;34.68
42119;BMP280;27783;42.782;23.274;2023-06-22T10:56:39;95799.25;;;33.38
42119;BMP280;27783;42.782;23.274;2023-06-22T10:59:05;95800.66;;;33.87
42119;BMP280;27783;42.782;23.274;2023-06-22T11:01:30;95797.47;;;35.17
42119;BMP280;27783;42.782;23.274;2023-06-22T11:03:56;95797.91;;;34.76
42119;BMP280;27783;42.782;23.274;2023-06-22T11:06:22;95803.75;;;35.77
42119;BMP280;27783;42.782;23.274;2023-06-22T11:08:47;95801.50;;;35.16
42119;BMP280;27783;42.782;23.274;2023-06-22T11:11:13;95797.50;;;35.04
42119;BMP280;27783;42.782;23.274;2023-06-22T11:13:38;95793.84;;;35.74
42119;BMP280;27783;42.782;23.274;2023-06-22T11:16:04;95789.63;;;34.31
42119;BMP280;27783;42.782;23.274;2023-06-22T11:18:31;95784.97;;;34.38
42119;BMP280;27783;42.782;23.274;2023-06-22T11:20:58;95782.00;;;33.86
42119;BMP280;27783;42.782;23.274;2023-06-22T11:23:24;95789.50;;;33.55
42119;BMP280;27783;42.782;23.274;2023-06-22T11:25:51;95787.41;;;34.04
42119;BMP280;27783;42.782;23.274;2023-06-22T11:28:16;95782.91;;;32.84
42119;BMP280;27783;42.782;23.274;2023-06-22T11:30:41;95786.75;;;33.24
42119;BMP280;27783;42.782;23.274;2023-06-22T11:33:07;95773.81;;;34.49
42119;BMP280;27783;42.782;23.274;2023-06-22T11:35:32;95778.66;;;34.56
42119;BMP280;27783;42.782;23.274;2023-06-22T11:37:58;95785.41;;;34.30
42119;BMP280;27783;42.782;23.274;2023-06-22T11:40:23;95783.69;;;34.52
42119;BMP280;27783;42.782;23.274;2023-06-22T11:42:49;95774.78;;;34.84
42119;BMP280;27783;42.782;23.274;2023-06-22T11:45:14;95776.41;;;33.79
42119;BMP280;27783;42.782;23.274;2023-06-22T11:47:39;95767.91;;;34.45
42119;BMP280;27783;42.782;23.274;2023-06-22T11:50:06;95767.00;;;34.30
42119;BMP280;27783;42.782;23.274;2023-06-22T11:52:31;95768.25;;;34.29
42119;BMP280;27783;42.782;23.274;2023-06-22T11:54:58;95773.41;;;34.20
42119;BMP280;27783;42.782;23.274;2023-06-22T11:57:24;95781.72;;;33.59
42119;BMP280;27783;42.782;23.274;2023-06-22T11:59:50;95771.38;;;33.39
42119;BMP280;27783;42.782;23.274;2023-06-22T12:02:15;95761.72;;;33.51
42119;BMP280;27783;42.782;23.274;2023-06-22T12:04:40;95770.97;;;32.99
42119;BMP280;27783;42.782;23.274;2023-06-22T12:07:06;95786.59;;;31.23
42119;BMP280;27783;42.782;23.274;2023-06-22T12:09:32;95803.84;;;29.17
42119;BMP280;27783;42.782;23.274;2023-06-22T12:11:58;95813.16;;;28.84
42119;BMP280;27783;42.782;23.274;2023-06-22T12:14:23;95825.59;;;29.33
42119;BMP280;27783;42.782;23.274;2023-06-22T12:16:49;95852.41;;;27.91
42119;BMP280;27783;42.782;23.274;2023-06-22T12:19:14;95868.13;;;25.23
42119;BMP280;27783;42.782;23.274;2023-06-22T12:21:40;95850.78;;;24.88
42119;BMP280;27783;42.782;23.274;2023-06-22T12:24:06;95852.09;;;24.18
42119;BMP280;27783;42.782;23.274;2023-06-22T12:26:31;95832.44;;;25.06
42119;BMP280;27783;42.782;23.274;2023-06-22T12:28:57;95838.50;;;24.87
42119;BMP280;27783;42.782;23.274;2023-06-22T12:31:22;95831.34;;;25.26
42119;BMP280;27783;42.782;23.274;2023-06-22T12:33:47;95829.94;;;24.74
42119;BMP280;27783;42.782;23.274;2023-06-22T12:36:13;95833.22;;;24.92
42119;BMP280;27783;42.782;23.274;2023-06-22T12:38:38;95825.19;;;24.97
42119;BMP280;27783;42.782;23.274;2023-06-22T12:41:04;95824.34;;;25.48
42119;BMP280;27783;42.782;23.274;2023-06-22T12:43:29;95826.75;;;25.60
42119;BMP280;27783;42.782;23.274;2023-06-22T12:45:54;95841.31;;;25.34
42119;BMP280;27783;42.782;23.274;2023-06-22T12:48:21;95839.44;;;25.40
42119;BMP280;27783;42.782;23.274;2023-06-22T12:50:47;95847.03;;;25.56
42119;BMP280;27783;42.782;23.274;2023-06-22T12:53:13;95829.31;;;25.69
42119;BMP280;27783;42.782;23.274;2023-06-22T12:55:38;95832.56;;;26.06
42119;BMP280;27783;42.782;23.274;2023-06-22T12:58:03;95841.91;;;26.44
42119;BMP280;27783;42.782;23.274;2023-06-22T13:00:29;95848.63;;;25.95
42119;BMP280;27783;42.782;23.274;2023-06-22T13:02:54;95853.38;;;25.53
42119;BMP280;27783;42.782;23.274;2023-06-22T13:05:20;95849.16;;;25.80
42119;BMP280;27783;42.782;23.274;2023-06-22T13:07:45;95859.22;;;26.52
42119;BMP280;27783;42.782;23.274;2023-06-22T13:10:11;95857.06;;;26.80
42119;BMP280;27783;42.782;23.274;2023-06-22T13:12:36;95869.03;;;26.93
42119;BMP280;27783;42.782;23.274;2023-06-22T13:15:02;95867.16;;;26.99
42119;BMP280;27783;42.782;23.274;2023-06-22T13:17:28;95862.25;;;27.03
42119;BMP280;27783;42.782;23.274;2023-06-22T13:19:54;95866.22;;;27.02
42119;BMP280;27783;42.782;23.274;2023-06-22T13:24:57;95877.34;;;26.90
42119;BMP280;27783;42.782;23.274;2023-06-22T13:27:23;95894.50;;;25.76
42119;BMP280;27783;42.782;23.274;2023-06-22T13:29:48;95883.88;;;25.25
42119;BMP280;27783;42.782;23.274;2023-06-22T13:32:14;95872.50;;;25.21
42119;BMP280;27783;42.782;23.274;2023-06-22T13:34:39;95865.34;;;25.18
42119;BMP280;27783;42.782;23.274;2023-06-22T13:41:39;95853.94;;;24.86
42119;BMP280;27783;42.782;23.274;2023-06-22T13:44:05;95850.03;;;25.57
42119;BMP280;27783;42.782;23.274;2023-06-22T13:46:31;95853.53;;;25.63
42119;BMP280;27783;42.782;23.274;2023-06-22T13:49:14;95852.56;;;25.33
42119;BMP280;27783;42.782;23.274;2023-06-22T13:51:48;95861.44;;;24.68
42119;BMP280;27783;42.782;23.274;2023-06-22T13:54:14;95856.50;;;24.53
42119;BMP280;27783;42.782;23.274;2023-06-22T13:56:41;95858.81;;;24.59
42119;BMP280;27783;42.782;23.274;2023-06-22T13:59:07;95861.47;;;24.45
42119;BMP280;27783;42.782;23.274;2023-06-22T14:01:34;95858.81;;;24.23
42119;BMP280;27783;42.782;23.274;2023-06-22T14:04:04;95849.13;;;24.53
42119;BMP280;27783;42.782;23.274;2023-06-22T14:06:32;95851.97;;;24.58
42119;BMP280;27783;42.782;23.274;2023-06-22T14:08:57;95864.72;;;24.26
42119;BMP280;27783;42.782;23.274;2023-06-22T14:11:25;95873.63;;;24.41
42119;BMP280;27783;42.782;23.274;2023-06-22T14:13:59;95879.53;;;24.31
42119;BMP280;27783;42.782;23.274;2023-06-22T14:16:35;95880.13;;;24.12
42119;BMP280;27783;42.782;23.274;2023-06-22T14:19:02;95878.69;;;24.02
42119;BMP280;27783;42.782;23.274;2023-06-22T14:21:32;95878.75;;;24.39
42119;BMP280;27783;42.782;23.274;2023-06-22T14:23:58;95886.19;;;24.44